Upstream stations:
Downstream station:
SHEF ID: OLBO2 North Canadian River blw Lk Over
STATION TYPE:
Regulating: Stage = 24.00, Flow = 9206
PRECIP STAGE RIV-FLOW WTR-TEMP DIS-OXY CONDUCT BAT-LOAD
in ft cfs F mg/l umho/cm volt
Ccp-Rev Ccp-Rev Ccp-Rev Ccp-Rev Ccp-Rev Ccp-Rev Ccp-Rev
(US/Central)
01/23 00:00 0.00 3.57 3 37.54 12.78 1148 12.54
01/23 01:00 0.00 3.58 3 37.26 12.62 1157 12.54
01/23 02:00 0.00 3.58 3 36.97 12.45 1164 12.54
01/23 03:00 0.00 3.58 3 36.64 12.24 1170 12.48
01/23 04:00 0.00 3.58 3 36.30 12.06 1173 12.48
01/23 05:00 0.00 3.58 3 36.05 11.92 1179 12.42
01/23 06:00 0.00 3.58 3 35.82 11.81 1191 12.42
01/23 07:00 0.00 3.58 3 35.60 11.75 1195 12.42
01/23 08:00 0.00 3.58 3 35.31 11.64 1151 12.36
01/23 09:00 0.00 3.57 3 35.31 11.92 1119 12.42
01/23 10:00 0.00 3.56 3 35.65 12.36 1123 12.77
01/23 11:00 0.00 3.52 2 36.99 13.05 1138 14.06
01/23 12:00 0.00 3.53 2 38.80 13.91 1142 14.24
01/23 13:00 0.00 3.56 3 40.59 14.55 1135 14.12
01/23 14:00 0.00 3.53 2 42.48 15.22 1126 13.71
01/23 15:00 0.00 3.56 3 43.77 15.01 1096 13.71
01/23 16:00 0.00 3.56 3 44.24 15.17 1073 13.59
01/23 17:00 0.00 3.56 3 44.31 14.98 1057 13.53
01/23 18:00 0.00 3.57 3 44.15 14.72 1071 13.24
01/23 19:00 0.00 3.58 3 43.61 14.26 1061 12.89
01/23 20:00 0.00 3.57 3 43.16 13.56 1070 12.71
01/23 21:00 0.00 3.57 3 42.67 13.14 1163 12.65
01/23 22:00 0.00 3.56 3 42.28 12.76 1171 12.60
01/23 23:00 0.00 3.57 3 41.79 12.29 1153 12.60